createdAt,value
2023-01-13T00:00:50.608Z,13.76
2023-01-13T00:03:17.111Z,13.74
2023-01-13T00:05:43.606Z,13.72
2023-01-13T00:08:10.124Z,13.73
2023-01-13T00:10:37.810Z,13.70
2023-01-13T00:13:05.478Z,13.71
2023-01-13T00:15:33.234Z,13.72
2023-01-13T00:17:59.693Z,13.71
2023-01-13T00:20:26.177Z,13.71
2023-01-13T00:22:52.676Z,13.73
2023-01-13T00:25:19.185Z,13.74
2023-01-13T00:27:45.712Z,13.72
2023-01-13T00:30:12.713Z,13.74
2023-01-13T00:32:39.301Z,13.79
2023-01-13T00:35:05.955Z,14.08
2023-01-13T00:37:32.429Z,13.86
2023-01-13T00:39:58.992Z,13.82
2023-01-13T00:42:44.163Z,13.82
2023-01-13T00:45:10.936Z,13.82
2023-01-13T00:47:37.418Z,13.87
2023-01-13T00:50:04.095Z,13.86
2023-01-13T00:52:31.729Z,14.08
2023-01-13T00:54:58.197Z,13.87
2023-01-13T00:57:24.713Z,13.83
2023-01-13T00:59:51.252Z,13.83
2023-01-13T01:02:17.926Z,13.80
2023-01-13T01:04:44.461Z,14.15
2023-01-13T01:07:10.991Z,13.91
2023-01-13T01:09:39.560Z,13.89
2023-01-13T01:12:06.156Z,13.87
2023-01-13T01:14:33.717Z,13.87
2023-01-13T01:17:00.194Z,13.85
2023-01-13T01:19:26.689Z,13.86
2023-01-13T01:21:53.231Z,13.87
2023-01-13T01:24:19.743Z,13.87
2023-01-13T01:26:46.271Z,13.87
2023-01-13T01:29:15.631Z,13.88
2023-01-13T01:31:43.348Z,13.88
2023-01-13T01:34:10.042Z,13.85
2023-01-13T01:36:36.780Z,14.13
2023-01-13T01:39:04.145Z,13.83
2023-01-13T01:41:32.955Z,13.75
2023-01-13T01:44:06.898Z,13.77
2023-01-13T01:46:35.763Z,13.68
2023-01-13T01:49:04.970Z,13.76
2023-01-13T01:51:36.832Z,13.81
2023-01-13T01:54:06.341Z,13.74
2023-01-13T01:56:33.972Z,13.70
2023-01-13T01:59:01.051Z,13.76
2023-01-13T02:01:28.461Z,13.81
2023-01-13T02:04:01.643Z,13.84
2023-01-13T02:06:30.483Z,13.85
2023-01-13T02:08:59.031Z,13.81
2023-01-13T02:11:50.214Z,13.81
2023-01-13T02:14:17.256Z,13.77
2023-01-13T02:16:54.629Z,13.82
2023-01-13T02:19:58.459Z,13.87
2023-01-13T02:22:55.984Z,13.83
2023-01-13T02:25:34.685Z,13.82
2023-01-13T02:28:16.419Z,13.70
2023-01-13T02:31:07.960Z,13.69
2023-01-13T02:33:50.296Z,13.73
2023-01-13T02:36:30.327Z,13.69
2023-01-13T02:39:01.011Z,13.56
2023-01-13T02:41:48.626Z,13.60
2023-01-13T02:44:20.360Z,13.59
2023-01-13T02:46:53.916Z,13.58
2023-01-13T02:49:44.344Z,13.66
2023-01-13T02:52:16.674Z,13.57
2023-01-13T02:54:47.908Z,13.56
2023-01-13T02:57:17.562Z,13.53
2023-01-13T02:59:44.349Z,13.48
2023-01-13T03:02:16.543Z,13.53
2023-01-13T03:04:49.983Z,13.51
2023-01-13T03:07:40.029Z,13.52
2023-01-13T03:10:25.038Z,13.53
2023-01-13T03:13:40.128Z,13.64
2023-01-13T03:16:15.572Z,13.62
2023-01-13T03:18:44.942Z,13.59
2023-01-13T03:21:35.211Z,13.66
2023-01-13T03:24:20.114Z,13.65
2023-01-13T03:26:51.816Z,13.66
2023-01-13T03:29:24.464Z,13.65
2023-01-13T03:31:59.368Z,13.70
2023-01-13T03:34:33.816Z,13.67
2023-01-13T03:37:04.452Z,13.70
2023-01-13T03:39:35.383Z,13.73
2023-01-13T03:42:07.588Z,13.73
2023-01-13T03:44:40.211Z,13.67
2023-01-13T03:47:18.684Z,13.75
2023-01-13T03:49:53.463Z,13.72
2023-01-13T03:52:31.055Z,13.77
2023-01-13T03:55:07.719Z,13.78
2023-01-13T03:57:40.218Z,13.79
2023-01-13T04:00:11.119Z,13.78
2023-01-13T04:02:56.182Z,13.73
2023-01-13T04:05:23.075Z,13.71
2023-01-13T04:07:52.939Z,13.70
2023-01-13T04:10:45.608Z,13.85
2023-01-13T04:13:16.498Z,13.70
2023-01-13T04:15:45.390Z,13.68
2023-01-13T04:18:24.620Z,13.74
2023-01-13T04:20:53.479Z,13.71
2023-01-13T04:23:21.750Z,13.68
2023-01-13T04:25:49.323Z,13.64
2023-01-13T04:28:16.740Z,13.64
2023-01-13T04:30:44.119Z,13.64
2023-01-13T04:33:11.506Z,13.63
2023-01-13T04:35:38.569Z,13.62
2023-01-13T04:38:11.190Z,13.66
2023-01-13T04:40:37.767Z,13.60
2023-01-13T04:43:04.538Z,13.59
2023-01-13T04:45:31.319Z,13.92
2023-01-13T04:47:57.923Z,13.63
2023-01-13T04:50:24.561Z,13.62
2023-01-13T04:52:52.562Z,13.60
2023-01-13T04:55:20.624Z,13.59
2023-01-13T04:57:47.185Z,13.61
2023-01-13T05:00:15.884Z,13.62
2023-01-13T05:02:42.454Z,13.61
2023-01-13T05:05:09.447Z,13.64
2023-01-13T05:07:36.015Z,13.63
2023-01-13T05:10:02.743Z,13.65
2023-01-13T05:12:47.973Z,13.65
2023-01-13T05:15:34.084Z,13.63
2023-01-13T05:18:01.846Z,13.64
2023-01-13T05:20:28.444Z,13.65
2023-01-13T05:23:30.165Z,13.67
2023-01-13T05:25:56.636Z,13.68
2023-01-13T05:28:23.087Z,13.71
2023-01-13T05:30:49.801Z,13.72
2023-01-13T05:33:17.649Z,14.03
2023-01-13T05:35:45.990Z,13.76
2023-01-13T05:38:14.012Z,13.74
2023-01-13T05:40:59.830Z,13.70
2023-01-13T05:43:27.471Z,13.69
2023-01-13T05:45:58.285Z,13.69
2023-01-13T05:48:27.763Z,13.65
2023-01-13T05:50:54.940Z,13.56
2023-01-13T05:53:22.235Z,13.54
2023-01-13T05:55:48.795Z,13.46
2023-01-13T05:58:17.140Z,13.45
2023-01-13T06:00:43.654Z,13.40
2023-01-13T06:03:10.987Z,13.37
2023-01-13T06:05:38.110Z,13.30
2023-01-13T06:08:06.773Z,13.25
2023-01-13T06:10:34.399Z,13.22
2023-01-13T06:13:01.222Z,13.16
2023-01-13T06:15:27.803Z,13.12
2023-01-13T06:17:54.756Z,13.05
2023-01-13T06:20:21.270Z,12.99
2023-01-13T06:22:49.932Z,13.02
2023-01-13T06:25:20.311Z,12.80
2023-01-13T06:27:46.853Z,12.80
2023-01-13T06:30:13.499Z,12.82
2023-01-13T06:32:41.961Z,13.05
2023-01-13T06:35:13.497Z,12.75
2023-01-13T06:37:43.965Z,12.70
2023-01-13T06:40:13.816Z,12.71
2023-01-13T06:42:59.249Z,12.62
2023-01-13T06:45:27.490Z,12.58
2023-01-13T06:47:54.683Z,12.56
2023-01-13T06:50:21.158Z,12.55
2023-01-13T06:52:47.611Z,12.49
2023-01-13T06:55:14.203Z,12.52
2023-01-13T06:57:54.883Z,12.55
2023-01-13T07:00:23.063Z,12.49
2023-01-13T07:02:50.155Z,12.48
2023-01-13T07:05:18.392Z,12.43
2023-01-13T07:07:45.263Z,12.46
2023-01-13T07:10:14.407Z,12.46
2023-01-13T07:13:00.233Z,12.44
2023-01-13T07:15:27.138Z,12.45
2023-01-13T07:17:53.893Z,12.41
2023-01-13T07:20:20.314Z,12.70
2023-01-13T07:22:46.778Z,12.44
2023-01-13T07:25:13.362Z,12.46
2023-01-13T07:27:39.843Z,12.45
2023-01-13T07:30:07.613Z,12.44
2023-01-13T07:32:34.165Z,12.44
2023-01-13T07:35:05.337Z,12.44
2023-01-13T07:37:37.491Z,12.44
2023-01-13T07:40:05.078Z,12.42
2023-01-13T07:42:50.026Z,12.42
2023-01-13T07:45:16.542Z,12.43
2023-01-13T07:47:42.994Z,12.45
2023-01-13T07:50:10.007Z,12.41
2023-01-13T07:52:36.449Z,12.37
2023-01-13T07:55:03.061Z,12.38
2023-01-13T07:57:29.489Z,12.38
2023-01-13T07:59:56.021Z,12.37
2023-01-13T08:02:22.808Z,12.37
2023-01-13T08:04:49.551Z,12.37
2023-01-13T08:07:16.074Z,12.36
2023-01-13T08:09:42.526Z,12.37
2023-01-13T08:12:27.472Z,12.36
2023-01-13T08:14:54.151Z,12.34
2023-01-13T08:17:20.815Z,12.61
2023-01-13T08:19:47.529Z,12.38
2023-01-13T08:22:13.995Z,12.66
2023-01-13T08:24:40.525Z,12.40
2023-01-13T08:27:07.070Z,12.38
2023-01-13T08:29:33.604Z,12.36
2023-01-13T08:32:00.149Z,12.31
2023-01-13T08:34:26.573Z,12.31
2023-01-13T08:36:53.069Z,12.34
2023-01-13T08:39:19.708Z,12.31
2023-01-13T08:41:55.290Z,12.57
2023-01-13T08:44:24.028Z,12.33
2023-01-13T08:46:50.685Z,12.32
2023-01-13T08:49:17.724Z,12.51
2023-01-13T08:51:44.543Z,12.32
2023-01-13T08:54:11.741Z,12.28
2023-01-13T08:56:39.251Z,12.30
2023-01-13T08:59:06.143Z,12.25
2023-01-13T09:01:34.094Z,12.27
2023-01-13T09:04:00.720Z,12.29
2023-01-13T09:06:27.262Z,12.28
2023-01-13T09:08:53.723Z,12.34
2023-01-13T09:11:44.790Z,12.31
2023-01-13T09:14:11.235Z,12.33
2023-01-13T09:16:37.676Z,12.35
2023-01-13T09:19:04.143Z,12.37
2023-01-13T09:21:30.617Z,12.35
2023-01-13T09:23:57.171Z,12.32
2023-01-13T09:26:23.604Z,12.35
2023-01-13T09:28:50.351Z,12.40
2023-01-13T09:31:16.780Z,12.61
2023-01-13T09:34:01.984Z,12.35
2023-01-13T09:36:28.454Z,12.34
2023-01-13T09:38:54.895Z,12.35
2023-01-13T09:41:42.461Z,12.34
2023-01-13T09:44:22.529Z,12.43
2023-01-13T09:46:56.427Z,12.44
2023-01-13T09:49:29.075Z,12.40
2023-01-13T09:52:14.076Z,12.50
2023-01-13T09:54:55.789Z,12.45
2023-01-13T09:57:22.285Z,12.48
2023-01-13T09:59:48.820Z,12.38
2023-01-13T10:02:36.414Z,12.52
2023-01-13T10:05:22.706Z,12.55
2023-01-13T10:07:52.770Z,12.54
2023-01-13T10:10:49.236Z,12.54
2023-01-13T10:13:20.380Z,12.58
2023-01-13T10:16:00.201Z,12.64
2023-01-13T10:18:57.777Z,12.73
2023-01-13T10:21:48.812Z,12.75
2023-01-13T10:24:35.546Z,12.77
2023-01-13T10:27:13.138Z,12.65
2023-01-13T10:29:39.640Z,12.69
2023-01-13T10:32:06.134Z,12.76
2023-01-13T10:34:52.504Z,12.68
2023-01-13T10:37:24.372Z,12.76
2023-01-13T10:39:55.024Z,12.73
2023-01-13T10:42:24.093Z,12.56
2023-01-13T10:44:58.177Z,12.68
2023-01-13T10:47:32.777Z,12.74
2023-01-13T10:50:11.100Z,12.66
2023-01-13T10:52:43.099Z,12.64
2023-01-13T10:55:57.711Z,12.83
2023-01-13T10:58:25.416Z,12.78
2023-01-13T11:01:01.367Z,12.78
2023-01-13T11:03:36.988Z,12.79
2023-01-13T11:06:03.835Z,12.66
2023-01-13T11:08:42.168Z,12.76
2023-01-13T11:11:43.966Z,12.78
2023-01-13T11:14:37.080Z,12.74
2023-01-13T11:17:10.370Z,12.79
2023-01-13T11:19:42.762Z,12.76
2023-01-13T11:22:23.670Z,12.60
2023-01-13T11:25:04.730Z,12.73
2023-01-13T11:27:43.759Z,12.68
2023-01-13T11:30:30.784Z,12.69
2023-01-13T11:33:15.823Z,12.84
2023-01-13T11:35:47.881Z,12.74
2023-01-13T11:38:27.328Z,12.68
2023-01-13T11:40:56.427Z,12.70
2023-01-13T11:43:51.732Z,12.82
2023-01-13T11:46:19.941Z,12.74
2023-01-13T11:48:46.589Z,12.61
2023-01-13T11:51:24.054Z,13.00
2023-01-13T11:54:10.899Z,12.82
2023-01-13T11:57:04.778Z,12.83
2023-01-13T11:59:40.360Z,12.78
2023-01-13T12:02:46.976Z,12.83
2023-01-13T12:05:40.911Z,12.71
2023-01-13T12:08:41.575Z,12.77
2023-01-13T12:11:18.976Z,12.74
2023-01-13T12:14:10.668Z,12.75
2023-01-13T12:16:47.647Z,12.72
2023-01-13T12:19:29.757Z,12.69
2023-01-13T12:22:09.740Z,12.75
2023-01-13T12:25:14.903Z,12.80
2023-01-13T12:27:52.318Z,12.68
2023-01-13T12:30:32.306Z,12.75
2023-01-13T12:33:09.689Z,12.78
2023-01-13T12:35:41.725Z,12.74
2023-01-13T12:38:21.199Z,12.81
2023-01-13T12:41:03.656Z,12.85
2023-01-13T12:43:50.040Z,12.85
2023-01-13T12:46:19.315Z,12.86
2023-01-13T12:48:51.007Z,12.88
2023-01-13T12:51:56.932Z,12.99
2023-01-13T12:54:42.580Z,13.07
2023-01-13T12:57:26.961Z,13.07
2023-01-13T12:59:59.756Z,13.09
2023-01-13T13:02:32.458Z,13.10
2023-01-13T13:05:14.427Z,13.04
2023-01-13T13:08:09.127Z,13.10
2023-01-13T13:10:40.391Z,13.12
2023-01-13T13:13:20.433Z,13.06
2023-01-13T13:15:49.242Z,13.06
2023-01-13T13:18:20.445Z,13.06
2023-01-13T13:20:58.204Z,13.02
2023-01-13T13:23:35.779Z,13.05
2023-01-13T13:26:14.489Z,13.06
2023-01-13T13:28:54.604Z,12.96
2023-01-13T13:31:41.130Z,12.98
2023-01-13T13:34:32.034Z,12.88
2023-01-13T13:37:22.829Z,12.88
2023-01-13T13:40:09.371Z,12.77
2023-01-13T13:43:01.349Z,12.72
2023-01-13T13:45:47.359Z,12.67
2023-01-13T13:48:25.284Z,12.64
2023-01-13T13:51:01.400Z,12.52
2023-01-13T13:53:33.620Z,12.55
2023-01-13T13:56:02.292Z,12.44
2023-01-13T13:58:31.380Z,12.40
2023-01-13T14:00:59.833Z,12.38
2023-01-13T14:03:32.511Z,12.39
2023-01-13T14:06:02.761Z,12.32
2023-01-13T14:08:33.157Z,12.31
2023-01-13T14:11:00.371Z,12.27
2023-01-13T14:13:32.117Z,12.32
2023-01-13T14:16:14.648Z,12.36
2023-01-13T14:18:45.585Z,12.25
2023-01-13T14:21:27.858Z,12.27
2023-01-13T14:24:01.996Z,12.20
2023-01-13T14:26:31.537Z,12.23
2023-01-13T14:29:01.892Z,12.16
2023-01-13T14:31:29.513Z,12.08
2023-01-13T14:33:58.633Z,12.13
2023-01-13T14:36:35.995Z,12.01
2023-01-13T14:39:05.642Z,12.03
2023-01-13T14:41:36.935Z,12.03
2023-01-13T14:44:42.831Z,12.00
2023-01-13T14:47:29.076Z,12.01
2023-01-13T14:50:19.380Z,11.91
2023-01-13T14:52:54.518Z,11.89
2023-01-13T14:55:34.000Z,11.82
2023-01-13T14:58:22.116Z,11.87
2023-01-13T15:00:50.588Z,11.69
2023-01-13T15:03:19.680Z,11.70
2023-01-13T15:05:49.452Z,11.70
2023-01-13T15:08:17.352Z,11.73
2023-01-13T15:10:54.727Z,11.74
2023-01-13T15:13:26.436Z,11.73
2023-01-13T15:15:56.215Z,11.74
2023-01-13T15:18:22.878Z,11.62
2023-01-13T15:20:51.056Z,11.63
2023-01-13T15:23:19.452Z,11.56
2023-01-13T15:25:47.156Z,11.61
2023-01-13T15:28:24.557Z,11.61
2023-01-13T15:30:53.963Z,11.59
2023-01-13T15:33:22.253Z,11.63
2023-01-13T15:35:52.539Z,11.52
2023-01-13T15:38:21.582Z,11.59
2023-01-13T15:40:51.987Z,11.62
2023-01-13T15:43:41.092Z,11.61
2023-01-13T15:46:35.444Z,11.66
2023-01-13T15:49:09.842Z,11.62
2023-01-13T15:51:37.203Z,11.54
2023-01-13T15:54:03.756Z,11.56
2023-01-13T15:56:30.560Z,11.61
2023-01-13T15:58:57.463Z,11.83
2023-01-13T16:01:24.369Z,11.61
2023-01-13T16:03:52.245Z,11.54
2023-01-13T16:06:23.701Z,11.59
2023-01-13T16:08:50.308Z,11.56
2023-01-13T16:11:17.127Z,11.53
2023-01-13T16:13:43.711Z,11.54
2023-01-13T16:16:19.300Z,11.83
2023-01-13T16:18:46.132Z,11.56
2023-01-13T16:21:14.166Z,11.54
2023-01-13T16:23:41.242Z,11.51
2023-01-13T16:26:17.534Z,11.54
2023-01-13T16:28:44.197Z,11.57
2023-01-13T16:31:32.402Z,11.61
2023-01-13T16:34:03.370Z,11.51
2023-01-13T16:36:33.327Z,11.45
2023-01-13T16:39:01.881Z,11.53
2023-01-13T16:41:28.478Z,11.55
2023-01-13T16:43:55.092Z,11.54
2023-01-13T16:46:30.344Z,11.58
2023-01-13T16:49:01.505Z,11.48
2023-01-13T16:51:28.113Z,11.49
2023-01-13T16:53:54.732Z,11.45
2023-01-13T16:56:25.364Z,11.45
2023-01-13T16:58:54.319Z,11.47
2023-01-13T17:01:32.276Z,11.56
2023-01-13T17:03:59.839Z,11.48
2023-01-13T17:06:38.957Z,11.50
2023-01-13T17:09:08.204Z,11.46
2023-01-13T17:11:34.942Z,11.33
2023-01-13T17:14:02.746Z,11.70
2023-01-13T17:16:45.527Z,11.47
2023-01-13T17:21:40.149Z,11.43
2023-01-13T17:24:07.986Z,11.45
2023-01-13T17:26:49.392Z,11.43
2023-01-13T17:29:22.435Z,11.44
2023-01-13T17:31:52.871Z,11.45
2023-01-13T17:34:21.077Z,11.37
2023-01-13T17:36:48.186Z,11.42
2023-01-13T17:39:20.588Z,11.47
2023-01-13T17:41:47.945Z,11.41
2023-01-13T17:44:16.266Z,11.31
2023-01-13T17:46:43.755Z,11.34
2023-01-13T17:49:14.676Z,11.43
2023-01-13T17:51:41.553Z,11.39
2023-01-13T17:54:12.122Z,11.38
2023-01-13T17:56:42.739Z,11.44
2023-01-13T17:59:11.786Z,11.40
2023-01-13T18:01:39.146Z,11.46
2023-01-13T18:04:06.940Z,11.46
2023-01-13T18:06:33.900Z,11.49
2023-01-13T18:09:00.998Z,11.41
2023-01-13T18:11:27.869Z,11.50
2023-01-13T18:13:57.045Z,11.50
2023-01-13T18:16:25.189Z,11.47
2023-01-13T18:18:53.517Z,11.46
2023-01-13T18:21:43.632Z,11.76
2023-01-13T18:24:33.782Z,11.54
2023-01-13T18:27:19.194Z,11.47
2023-01-13T18:29:46.420Z,11.48
2023-01-13T18:32:13.462Z,11.47
2023-01-13T18:34:40.074Z,11.42
2023-01-13T18:37:08.310Z,11.46
2023-01-13T18:39:37.324Z,11.47
2023-01-13T18:42:23.764Z,11.49
2023-01-13T18:44:50.239Z,11.50
2023-01-13T18:47:16.747Z,11.49
2023-01-13T18:49:43.211Z,11.48
2023-01-13T18:52:10.172Z,11.51
2023-01-13T18:54:36.754Z,11.46
2023-01-13T18:57:03.431Z,11.54
2023-01-13T18:59:31.074Z,11.53
2023-01-13T19:01:58.474Z,11.56
2023-01-13T19:04:25.049Z,11.51
2023-01-13T19:06:51.935Z,11.58
2023-01-13T19:09:24.658Z,11.58
2023-01-13T19:11:52.317Z,11.59
2023-01-13T19:14:35.059Z,11.56
2023-01-13T19:17:02.302Z,11.58
2023-01-13T19:19:29.770Z,11.50
2023-01-13T19:21:56.474Z,11.57
2023-01-13T19:24:23.184Z,11.85
2023-01-13T19:26:49.750Z,11.61
2023-01-13T19:29:16.283Z,11.54
2023-01-13T19:31:42.719Z,11.59
2023-01-13T19:34:09.612Z,11.63
2023-01-13T19:36:36.208Z,11.61
2023-01-13T19:39:02.901Z,11.58
2023-01-13T19:41:47.792Z,11.83
2023-01-13T19:44:32.794Z,11.65
2023-01-13T19:46:59.237Z,11.63
2023-01-13T19:49:25.709Z,11.57
2023-01-13T19:51:52.173Z,11.58
2023-01-13T19:54:18.621Z,11.62
2023-01-13T19:56:45.092Z,11.64
2023-01-13T19:59:13.480Z,11.68
2023-01-13T20:01:41.177Z,11.70
2023-01-13T20:04:14.150Z,11.72
2023-01-13T20:06:41.101Z,11.69
2023-01-13T20:09:07.599Z,11.75
2023-01-13T20:11:34.152Z,11.68
2023-01-13T20:14:01.552Z,11.73
2023-01-13T20:16:29.427Z,11.75
2023-01-13T20:18:56.623Z,11.76
2023-01-13T20:21:23.303Z,11.74
2023-01-13T20:23:50.767Z,12.01
2023-01-13T20:26:18.086Z,11.85
2023-01-13T20:28:44.922Z,11.70
2023-01-13T20:31:13.355Z,11.77
2023-01-13T20:33:40.351Z,11.74
2023-01-13T20:36:07.982Z,11.77
2023-01-13T20:38:37.906Z,11.79
2023-01-13T20:41:24.832Z,11.76
2023-01-13T20:43:54.411Z,11.82
2023-01-13T20:46:22.808Z,11.85
2023-01-13T20:48:49.420Z,11.85
2023-01-13T20:51:16.001Z,11.91
2023-01-13T20:53:42.524Z,11.88
2023-01-13T20:56:09.997Z,11.89
2023-01-13T20:58:39.212Z,11.92
2023-01-13T21:01:05.869Z,11.90
2023-01-13T21:03:32.446Z,12.15
2023-01-13T21:05:58.951Z,11.95
2023-01-13T21:08:25.525Z,11.92
2023-01-13T21:10:52.046Z,11.95
2023-01-13T21:13:37.254Z,11.86
2023-01-13T21:16:04.070Z,11.95
2023-01-13T21:18:49.179Z,11.95
2023-01-13T21:21:16.292Z,11.96
2023-01-13T21:23:46.915Z,11.95
2023-01-13T21:26:15.614Z,11.93
2023-01-13T21:28:44.346Z,11.89
2023-01-13T21:31:10.935Z,11.90
2023-01-13T21:33:40.289Z,11.93
2023-01-13T21:36:07.707Z,11.92
2023-01-13T21:38:34.398Z,11.89
2023-01-13T21:41:07.226Z,12.11
2023-01-13T21:43:53.488Z,11.91
2023-01-13T21:46:40.391Z,11.92
